Soulsbyville, CA (95372)

12:32 PM PDT on September 01, 2014 (GMT -0700)
Sonora Meadows | Change Station
CLOSE
Current Station
Personal Weather Station
Location: Sonora, CA
Elevation: 2850 ft
Nearby Weather Stations

Elev 2850 ft 38.01 °N, 120.27 °W | Updated 4 seconds ago

Clear
Clear
87.5 °F
Feels Like 84 °F
N
2.0
Wind Variable Wind from West
Gusts 5.0 mph

Today
High -- | Low -- °F
--% Chance of Precip.
Yesterday
High -- | Low -- °F
Precip. -- in
6:30 AM 7:30 PM
Waxing Crescent, 43% visible
Pressure 29.88 in
Visibility 10.0 miles
Clouds Clear
Heat Index 84 °F
Dew Point 46 °F
Humidity 24%
Rainfall 0.00 in
Snow Depth Not available.
UV 10 out of 12
Pollen 9.40 out of 12
Ozone Good
Flu Activity Not available.
METAR KO22 011915Z AUTO 25004KT 10SM CLR 32/05 A2988 RMK AO1

More Conditions Fewer Conditions

Pressure 29.88 in
Visibility 10.0 miles
Clouds Clear
Heat Index 84 °F
Dew Point 46 °F
Humidity 24%
Rainfall 0.00 in
Snow Depth Not available.
UV 10 out of 12
Pollen 9.40 out of 12
Ozone Good
Flu Activity Not available.
METAR KO22 011915Z AUTO 25004KT 10SM CLR 32/05 A2988 RMK AO1

More Conditions Fewer Conditions

10-Day Weather Forecast

Almanac

Astronomy

Sep. 01, 2014 Rise Set
Actual Time 6:30 AM PDT 7:30 PM PDT
Civil Twilight 6:04 AM PDT 7:57 PM PDT
Nautical Twilight 5:31 AM PDT 8:29 PM PDT
Astronomical Twilight 4:58 AM PDT 9:02 PM PDT
Moon 1:15 PM PDT 11:42 PM PDT
Length of Visible Light 13h 53m
Length of Day
12h 59m
Tomorrow will be 2m 21s shorter.
Waxing Crescent, 43% of the Moon is Illuminated
Today
Waxing Crescent
Sep 2
First Quarter
Sep 8
Full
Sep 15
Last Quarter
Sep 24
New

Today's Extremes

State Highs State Lows

Community

WunderPhotos

Upload Photos

1,749,385 photos uploaded!

WunderBlogs® & News

Nearby

Air Quality

  Air Quality AQ Index Pollutant
Yesterday Good
OZONE
Current Good
OZONE
Monday Unhealthy for Sensitive Groups
OZONE
Tuesday Moderate
OZONE
Wednesday Moderate
OZONE
Thursday Moderate
OZONE
Friday Good
OZONE
Saturday Good
OZONE

Snow Depth

Station Depth Elevation
Leavitt Meadows 0 in 7200 ft
Blue Lakes 0 in 8000 ft
Summit Meadow 0 in 9122 ft
Fallen Leaf 0 in 6300 ft
Rubicon #2 0 in 7500 ft

Earthquake Activity

City Distance Mag. Time & Date
Gilroy, California 96 miles 3.5 9:10 AM PDT
2014-09-01
Green Valley, California 104 miles 2.5 6:37 AM PDT
2014-08-31
Gonzales, California 108 miles 2.7 9:48 PM PDT
2014-08-30
Ridgemark, California 107 miles 3.4 4:32 PM PDT
2014-08-29
Minimum magnitude displayed is 2.5.

Coastal Water Temperatures

Place Temperature
No Stations Reporting

Nearby Weather Stations